Time;durP1;ratioP1;P1;durP2;ratioP2;P2;SDS_P1;SDS_P2;PMS_P1;PMS_P2;Temp;Humidity;BMP_temperature;BMP_pressure;BME280_temperature;BME280_humidity;BME280_pressure;Samples;Min_cycle;Max_cycle;Signal;HPM_P1;HPM_P2
2022/03/08 00:04:36;;;;;;;14.93;7.07;;;10.80;86.90;;;;;;12933811;23;20517;-80
2022/03/08 00:09:39;;;;;;;10.00;6.23;;;11.00;84.80;;;;;;12916557;23;20643;-80
2022/03/08 00:14:41;;;;;;;11.77;6.43;;;11.00;83.80;;;;;;12865673;23;20184;-80
2022/03/08 00:19:49;;;;;;;11.40;6.97;;;11.00;82.80;;;;;;12936005;23;20474;-80
2022/03/08 00:24:51;;;;;;;14.10;7.17;;;11.00;82.30;;;;;;12907909;23;20564;-80
2022/03/08 00:29:54;;;;;;;10.13;6.90;;;11.00;81.70;;;;;;12890455;23;20221;-80
2022/03/08 00:35:02;;;;;;;12.80;6.60;;;11.00;81.30;;;;;;12933540;23;20194;-80
2022/03/08 00:40:08;;;;;;;14.67;6.77;;;11.00;81.00;;;;;;12889457;23;20170;-80
2022/03/08 00:45:11;;;;;;;10.67;6.17;;;10.90;80.70;;;;;;12888827;23;20201;-80
2022/03/08 00:50:20;;;;;;;13.17;6.10;;;11.00;80.00;;;;;;12864237;23;20172;-80
2022/03/08 00:55:24;;;;;;;11.57;6.87;;;10.90;80.00;;;;;;12888378;23;20180;-80
2022/03/08 01:00:28;;;;;;;10.97;6.60;;;11.00;79.30;;;;;;12917728;23;20271;-80
2022/03/08 01:05:32;;;;;;;10.40;6.50;;;11.10;78.80;;;;;;12893569;23;20199;-80
2022/03/08 01:10:35;;;;;;;13.83;6.60;;;11.10;78.60;;;;;;12854314;23;20208;-80
2022/03/08 01:15:37;;;;;;;10.57;6.60;;;11.00;78.50;;;;;;12857643;23;20174;-80
2022/03/08 01:20:40;;;;;;;11.53;5.93;;;10.90;78.30;;;;;;12855025;23;20215;-80
2022/03/08 01:25:43;;;;;;;11.27;6.63;;;10.90;78.40;;;;;;12829868;23;20584;-80
2022/03/08 01:30:46;;;;;;;12.47;6.97;;;10.80;78.40;;;;;;12855112;23;20176;-80
2022/03/08 01:35:49;;;;;;;11.13;6.50;;;10.80;78.20;;;;;;12829436;23;20181;-80
2022/03/08 01:40:52;;;;;;;15.50;7.53;;;10.90;77.50;;;;;;12854323;23;20237;-80
2022/03/08 01:45:54;;;;;;;10.33;6.13;;;11.00;77.20;;;;;;12854587;23;20239;-80
2022/03/08 01:50:58;;;;;;;10.03;6.17;;;10.90;77.20;;;;;;12829976;23;20203;-80
2022/03/08 01:56:00;;;;;;;10.73;6.40;;;10.90;77.10;;;;;;12855900;23;20399;-80
2022/03/08 02:01:05;;;;;;;11.23;6.50;;;10.90;76.90;;;;;;12856161;23;20561;-80
2022/03/08 02:06:08;;;;;;;12.30;7.03;;;11.00;76.30;;;;;;12854073;23;20269;-80
2022/03/08 02:11:11;;;;;;;9.77;5.67;;;10.90;76.10;;;;;;12911334;23;20600;-80
2022/03/08 02:16:14;;;;;;;10.30;5.97;;;10.70;76.60;;;;;;12892213;23;20172;-80
2022/03/08 02:21:16;;;;;;;12.17;7.17;;;10.70;76.70;;;;;;12867447;23;20180;-80
2022/03/08 02:26:21;;;;;;;10.97;6.67;;;10.40;76.80;;;;;;12917454;23;20591;-80
2022/03/08 02:31:24;;;;;;;10.67;6.03;;;10.40;77.20;;;;;;12889966;23;20514;-80
2022/03/08 02:36:26;;;;;;;12.63;6.53;;;10.60;77.00;;;;;;12918038;23;20166;-80
2022/03/08 02:41:29;;;;;;;11.50;6.50;;;10.70;76.00;;;;;;12917171;23;20529;-80
2022/03/08 02:46:31;;;;;;;12.53;6.30;;;10.70;75.80;;;;;;12917609;23;20220;-80
2022/03/08 02:51:34;;;;;;;11.20;6.37;;;10.70;75.70;;;;;;12918131;23;20623;-80
2022/03/08 02:56:36;;;;;;;12.17;5.97;;;10.70;75.70;;;;;;12917641;23;20514;-80
2022/03/08 03:01:39;;;;;;;13.97;7.70;;;10.70;75.50;;;;;;12889616;23;20206;-80
2022/03/08 03:06:43;;;;;;;19.63;9.53;;;10.80;75.10;;;;;;12917585;23;20564;-80
2022/03/08 03:11:46;;;;;;;24.97;10.90;;;9.60;72.40;;;;;;12890502;23;20233;-80
2022/03/08 03:16:48;;;;;;;11.20;5.77;;;10.20;69.70;;;;;;12917600;23;20195;-80
2022/03/08 03:21:51;;;;;;;10.37;5.77;;;10.00;77.20;;;;;;12917212;23;20172;-79
2022/03/08 03:26:53;;;;;;;10.13;6.50;;;10.30;76.20;;;;;;12916728;23;20195;-80
2022/03/08 03:31:55;;;;;;;9.30;6.33;;;10.50;75.50;;;;;;12889564;23;20177;-80
2022/03/08 03:36:58;;;;;;;11.47;6.20;;;10.40;75.30;;;;;;12890589;23;20168;-79
2022/03/08 03:42:00;;;;;;;12.87;5.80;;;10.40;75.30;;;;;;12890166;23;20222;-80
2022/03/08 03:47:03;;;;;;;11.17;6.23;;;10.50;75.10;;;;;;12890153;23;20260;-80
2022/03/08 03:52:06;;;;;;;10.67;6.37;;;10.50;74.90;;;;;;12889490;23;20660;-80
2022/03/08 03:57:11;;;;;;;11.30;6.70;;;10.40;75.10;;;;;;12916171;23;20174;-80
2022/03/08 04:02:14;;;;;;;8.83;5.70;;;10.40;74.70;;;;;;12890001;23;20168;-80
2022/03/08 04:07:16;;;;;;;10.40;6.33;;;10.20;75.10;;;;;;12888053;23;20207;-80
2022/03/08 04:12:19;;;;;;;9.80;5.30;;;10.20;75.30;;;;;;12890057;23;20494;-79
2022/03/08 04:17:21;;;;;;;10.33;6.17;;;10.30;75.00;;;;;;12916789;23;20198;-80
2022/03/08 04:22:24;;;;;;;12.97;6.53;;;10.60;74.10;;;;;;12888387;23;20176;-79
2022/03/08 04:27:32;;;;;;;9.87;5.53;;;10.50;73.80;;;;;;12887596;23;20241;-79
2022/03/08 04:32:34;;;;;;;8.87;5.37;;;10.30;74.60;;;;;;12889533;23;20167;-80
2022/03/08 04:37:37;;;;;;;10.50;5.63;;;10.40;74.20;;;;;;12919032;23;20168;-79
2022/03/08 04:42:41;;;;;;;12.30;6.90;;;10.50;74.10;;;;;;12919825;23;20529;-79
2022/03/08 04:47:43;;;;;;;8.33;5.53;;;10.30;74.00;;;;;;12892359;23;20218;-79
2022/03/08 04:52:48;;;;;;;8.97;5.10;;;10.10;74.00;;;;;;12919904;23;20194;-79
2022/03/08 04:57:51;;;;;;;12.87;6.03;;;9.80;74.80;;;;;;12866959;23;20179;-79
2022/03/08 05:02:54;;;;;;;10.60;6.00;;;9.90;75.50;;;;;;12891985;23;20503;-80
2022/03/08 05:07:57;;;;;;;11.40;6.77;;;10.00;74.80;;;;;;12918510;23;20662;-79
2022/03/08 05:13:00;;;;;;;12.23;6.43;;;10.00;75.20;;;;;;12892910;23;20227;-79
2022/03/08 05:18:03;;;;;;;11.97;7.27;;;9.90;74.40;;;;;;12919003;23;20221;-80
2022/03/08 05:23:06;;;;;;;10.40;5.90;;;9.80;75.30;;;;;;12919739;23;20171;-79
2022/03/08 05:28:08;;;;;;;10.47;5.70;;;10.00;74.90;;;;;;12919194;23;20192;-79
2022/03/08 05:33:11;;;;;;;11.30;5.47;;;10.00;74.50;;;;;;12920151;23;20228;-79
2022/03/08 05:38:13;;;;;;;9.03;5.33;;;10.10;74.10;;;;;;12919914;23;20552;-79
2022/03/08 05:43:18;;;;;;;8.33;5.53;;;10.00;74.00;;;;;;12891734;23;20223;-79
2022/03/08 05:48:21;;;;;;;9.33;5.90;;;10.00;74.00;;;;;;12892717;23;20217;-79
2022/03/08 05:53:23;;;;;;;10.67;6.00;;;10.10;73.60;;;;;;12919091;23;20163;-79
2022/03/08 05:58:27;;;;;;;12.07;6.10;;;10.10;73.70;;;;;;12866760;23;20273;-79
2022/03/08 06:03:29;;;;;;;10.30;6.10;;;10.10;73.60;;;;;;12918627;23;20172;-79
2022/03/08 06:08:32;;;;;;;10.73;6.20;;;10.20;73.10;;;;;;12890717;23;20203;-79
2022/03/08 06:13:34;;;;;;;11.47;5.97;;;10.20;72.80;;;;;;12914713;23;20166;-79
2022/03/08 06:18:37;;;;;;;10.73;6.57;;;10.10;73.60;;;;;;12918106;23;20225;-79
2022/03/08 06:23:39;;;;;;;9.97;6.13;;;9.90;73.60;;;;;;12916891;23;20170;-79
2022/03/08 06:28:42;;;;;;;10.73;6.23;;;9.80;73.90;;;;;;12889983;23;20659;-79
2022/03/08 06:33:44;;;;;;;8.93;5.30;;;9.80;74.10;;;;;;12865638;23;20174;-79
2022/03/08 06:38:47;;;;;;;12.40;6.23;;;9.90;74.00;;;;;;12891125;23;20179;-79
2022/03/08 06:43:49;;;;;;;11.33;6.57;;;9.90;73.70;;;;;;12865243;23;20178;-79
2022/03/08 06:48:52;;;;;;;12.57;5.43;;;9.90;73.50;;;;;;12917902;23;20186;-79
2022/03/08 06:53:54;;;;;;;8.37;5.33;;;9.90;73.80;;;;;;12889718;23;20175;-79
2022/03/08 06:58:57;;;;;;;9.07;5.83;;;9.90;73.80;;;;;;12916479;23;20712;-79
2022/03/08 07:03:59;;;;;;;14.97;8.63;;;10.00;73.80;;;;;;12890218;23;20508;-83
2022/03/08 07:09:03;;;;;;;10.70;5.80;;;9.80;73.60;;;;;;12886799;23;20207;-80
2022/03/08 07:14:06;;;;;;;23.67;11.47;;;10.00;73.80;;;;;;12886881;23;20174;-79
2022/03/08 07:19:08;;;;;;;10.90;6.67;;;8.00;88.40;;;;;;12916785;23;20505;-80
2022/03/08 07:24:12;;;;;;;24.87;11.93;;;9.30;77.10;;;;;;12889440;23;20201;-80
2022/03/08 07:29:15;;;;;;;25.57;11.97;;;8.70;77.30;;;;;;12889654;23;20508;-81
2022/03/08 07:34:19;;;;;;;16.60;9.13;;;8.40;74.50;;;;;;12888351;23;20170;-83
2022/03/08 07:39:21;;;;;;;21.30;10.50;;;9.20;75.30;;;;;;12884213;23;20236;-81
2022/03/08 07:44:24;;;;;;;25.00;12.30;;;8.20;73.40;;;;;;12888191;23;20182;-82
2022/03/08 07:49:27;;;;;;;19.33;8.73;;;8.80;75.70;;;;;;12887560;23;20225;-82
2022/03/08 07:54:29;;;;;;;21.47;11.70;;;9.60;73.80;;;;;;12888372;23;20221;-80
2022/03/08 07:59:32;;;;;;;18.17;9.30;;;10.10;71.50;;;;;;12914162;23;20530;-80
2022/03/08 08:04:34;;;;;;;19.40;10.03;;;9.40;73.80;;;;;;12933979;23;20220;-81
2022/03/08 08:09:38;;;;;;;17.07;9.30;;;8.70;75.70;;;;;;12914500;23;20216;-81
2022/03/08 08:14:40;;;;;;;17.43;8.90;;;8.80;76.80;;;;;;12915161;23;20236;-81
2022/03/08 08:19:43;;;;;;;18.67;11.13;;;8.90;77.80;;;;;;12862933;23;20178;-83
2022/03/08 08:24:45;;;;;;;18.23;10.13;;;8.70;77.80;;;;;;12915725;23;20171;-81
2022/03/08 08:29:48;;;;;;;27.60;14.77;;;8.60;78.20;;;;;;12888398;23;20660;-80
2022/03/08 08:34:51;;;;;;;14.77;8.63;;;8.00;74.30;;;;;;12933612;23;20162;-81
2022/03/08 08:39:53;;;;;;;25.23;11.80;;;7.40;84.60;;;;;;12887299;23;20228;-81
2022/03/08 08:44:55;;;;;;;18.17;9.00;;;7.70;76.10;;;;;;12915343;23;20513;-81
2022/03/08 08:49:58;;;;;;;14.10;7.70;;;6.50;87.10;;;;;;12915331;23;20170;-81
2022/03/08 08:55:02;;;;;;;12.70;7.67;;;8.00;82.00;;;;;;12888194;23;20174;-81
2022/03/08 09:00:12;;;;;;;8.67;4.93;;;8.50;73.40;;;;;;12914668;23;20171;-80
2022/03/08 09:05:14;;;;;;;9.60;4.87;;;6.10;79.80;;;;;;12888271;23;20226;-83
2022/03/08 09:10:19;;;;;;;7.80;5.00;;;5.70;81.90;;;;;;12913814;23;20217;-83
2022/03/08 09:15:22;;;;;;;6.57;3.30;;;7.10;79.90;;;;;;12933343;23;20672;-82
2022/03/08 09:20:26;;;;;;;4.57;2.37;;;6.00;80.00;;;;;;12887617;23;20708;-82
2022/03/08 09:25:28;;;;;;;7.40;4.90;;;6.50;80.00;;;;;;12918012;23;20229;-80
2022/03/08 09:30:31;;;;;;;14.67;5.83;;;7.50;84.10;;;;;;12917626;23;20387;-80
2022/03/08 09:35:34;;;;;;;12.07;3.77;;;7.20;86.30;;;;;;12889772;23;20170;-79
2022/03/08 09:40:36;;;;;;;10.40;6.00;;;5.90;81.90;;;;;;12888908;23;20645;-81
2022/03/08 09:45:39;;;;;;;9.93;4.63;;;7.40;89.80;;;;;;12891302;23;20516;-80
2022/03/08 09:50:41;;;;;;;5.80;3.50;;;8.30;79.50;;;;;;12917904;23;20162;-80
2022/03/08 09:55:44;;;;;;;7.23;5.23;;;7.60;72.00;;;;;;12892019;23;20570;-81
2022/03/08 10:00:46;;;;;;;10.40;4.83;;;10.00;79.60;;;;;;12865729;23;20182;-80
2022/03/08 10:05:54;;;;;;;4.67;3.13;;;7.50;74.40;;;;;;12917868;23;20304;-80
2022/03/08 10:10:59;;;;;;;4.20;3.00;;;6.60;73.70;;;;;;12855888;23;20191;-80
2022/03/08 10:16:23;;;;;;;8.80;4.60;;;7.30;73.10;;;;;;12853735;23;20179;-80
2022/03/08 10:21:40;;;;;;;7.80;4.80;;;6.90;89.10;;;;;;12870215;23;20167;-82
2022/03/08 10:26:47;;;;;;;8.43;4.90;;;8.40;82.30;;;;;;12851639;23;20190;-82
2022/03/08 10:32:03;;;;;;;6.63;4.63;;;10.60;77.20;;;;;;12871969;23;20213;-80
2022/03/08 10:37:24;;;;;;;6.67;4.70;;;10.80;75.80;;;;;;12852241;23;20174;-79
2022/03/08 10:42:29;;;;;;;11.73;4.60;;;10.80;74.70;;;;;;12864512;23;20180;-80
2022/03/08 10:47:46;;;;;;;15.10;8.90;;;9.10;67.30;;;;;;12854418;23;20191;-80
2022/03/08 10:53:00;;;;;;;11.07;5.77;;;8.10;69.00;;;;;;12871860;23;20555;-80
2022/03/08 10:58:06;;;;;;;8.27;4.43;;;9.60;68.50;;;;;;12860605;23;20175;-80
2022/03/08 11:03:14;;;;;;;6.60;4.13;;;7.90;78.60;;;;;;12853114;23;20891;-79
2022/03/08 11:08:17;;;;;;;6.80;4.43;;;10.30;76.20;;;;;;12886237;23;20198;-80
2022/03/08 11:13:21;;;;;;;8.43;4.87;;;11.30;73.60;;;;;;12888138;23;20170;-80
2022/03/08 11:18:24;;;;;;;8.17;4.77;;;11.90;71.00;;;;;;12887430;23;20179;-80
2022/03/08 11:23:33;;;;;;;8.13;3.93;;;11.30;62.90;;;;;;12915582;23;20179;-79
2022/03/08 11:28:48;;;;;;;4.77;3.63;;;10.80;67.10;;;;;;12886869;23;20195;-81
2022/03/08 11:34:12;;;;;;;4.90;3.80;;;10.10;74.60;;;;;;12933853;23;20167;-79
2022/03/08 11:39:15;;;;;;;5.73;3.20;;;10.50;65.60;;;;;;12887411;23;20170;-79
2022/03/08 11:44:27;;;;;;;4.53;3.17;;;9.60;69.30;;;;;;12886022;23;20642;-80
2022/03/08 11:49:56;;;;;;;11.27;4.67;;;10.50;69.20;;;;;;12932067;23;20186;-84
2022/03/08 11:55:35;;;;;;;4.23;2.67;;;10.00;65.10;;;;;;12888337;23;20551;-84
2022/03/08 12:00:42;;;;;;;12.17;5.40;;;10.00;71.70;;;;;;12863140;23;20226;-80
2022/03/08 12:05:58;;;;;;;3.97;2.70;;;8.40;66.70;;;;;;12888046;23;20216;-81
2022/03/08 12:11:29;;;;;;;6.40;3.23;;;8.20;67.20;;;;;;12917024;23;20273;-80
2022/03/08 12:17:05;;;;;;;5.10;2.83;;;9.20;66.50;;;;;;12643492;23;20177;-82
2022/03/08 12:22:22;;;;;;;4.07;2.70;;;8.40;68.10;;;;;;12662664;23;20177;-80
2022/03/08 12:27:44;;;;;;;7.00;2.50;;;8.00;70.70;;;;;;12666410;23;20220;-83
2022/03/08 12:32:55;;;;;;;8.47;3.80;;;7.90;69.90;;;;;;12633387;23;20208;-79
2022/03/08 12:38:03;;;;;;;8.77;5.17;;;8.40;73.30;;;;;;12648405;23;20213;-79
2022/03/08 12:43:11;;;;;;;6.53;4.07;;;9.30;69.50;;;;;;12670134;23;20185;-78
2022/03/08 12:48:21;;;;;;;4.77;3.33;;;8.40;76.00;;;;;;12637235;23;20379;-78
2022/03/08 12:53:29;;;;;;;6.33;3.83;;;9.20;77.40;;;;;;12851832;23;20171;-78
2022/03/08 12:58:36;;;;;;;6.03;3.97;;;10.30;74.20;;;;;;12889771;23;20174;-79
2022/03/08 13:03:44;;;;;;;7.80;5.13;;;11.00;71.90;;;;;;12910277;23;20170;-80
2022/03/08 13:08:47;;;;;;;13.77;4.73;;;9.50;66.10;;;;;;12890484;23;20232;-78
2022/03/08 13:13:50;;;;;;;7.03;3.40;;;8.60;70.30;;;;;;12918686;23;20217;-79
2022/03/08 13:19:00;;;;;;;6.70;3.97;;;9.00;75.10;;;;;;12891165;23;20174;-79
2022/03/08 13:24:11;;;;;;;8.87;5.30;;;11.00;69.10;;;;;;12890860;23;20178;-80
2022/03/08 13:29:19;;;;;;;5.90;3.50;;;9.50;69.50;;;;;;12896806;23;20578;-80
2022/03/08 13:34:24;;;;;;;6.73;4.93;;;9.50;73.00;;;;;;12866832;23;20201;-80
2022/03/08 13:39:26;;;;;;;6.93;4.80;;;9.00;68.60;;;;;;12890657;23;20494;-79
2022/03/08 13:44:30;;;;;;;11.50;6.17;;;8.90;67.40;;;;;;12917178;23;20174;-82
2022/03/08 13:49:33;;;;;;;7.17;4.60;;;9.00;69.20;;;;;;12915848;23;20190;-83
2022/03/08 13:54:39;;;;;;;16.50;5.63;;;8.60;68.40;;;;;;12889383;23;20174;-83
2022/03/08 13:59:41;;;;;;;20.63;4.53;;;8.60;69.70;;;;;;12889390;23;20182;-81
2022/03/08 14:04:44;;;;;;;4.60;3.60;;;10.20;67.30;;;;;;12936082;23;20197;-83
2022/03/08 14:10:19;;;;;;;5.27;3.53;;;10.20;74.00;;;;;;12891333;23;20194;-84
2022/03/08 14:15:24;;;;;;;15.83;3.70;;;10.30;71.80;;;;;;12877249;23;20171;-83
2022/03/08 14:20:26;;;;;;;4.23;3.23;;;9.50;70.30;;;;;;12911198;23;20508;-85
2022/03/08 14:25:29;;;;;;;6.13;3.20;;;9.50;75.70;;;;;;12891501;23;20241;-84
2022/03/08 14:30:32;;;;;;;5.83;3.10;;;9.30;72.70;;;;;;12919174;23;20186;-84
2022/03/08 14:35:34;;;;;;;5.30;2.97;;;11.30;71.40;;;;;;12864941;23;20236;-80
2022/03/08 14:40:43;;;;;;;6.83;3.50;;;11.60;70.60;;;;;;12891210;23;20213;-81
2022/03/08 14:45:46;;;;;;;4.17;3.23;;;11.70;68.10;;;;;;12889802;23;20553;-80
2022/03/08 14:51:09;;;;;;;3.80;3.13;;;11.10;66.30;;;;;;12889947;23;20199;-80
2022/03/08 14:56:13;;;;;;;10.97;4.57;;;12.00;69.00;;;;;;12889261;23;20175;-80
2022/03/08 15:01:15;;;;;;;8.77;3.83;;;10.00;63.30;;;;;;12936288;23;20220;-81
2022/03/08 15:06:18;;;;;;;10.53;4.00;;;9.50;65.10;;;;;;12917000;23;20217;-80
2022/03/08 15:11:21;;;;;;;4.77;3.10;;;10.10;63.70;;;;;;12917581;23;20507;-80
2022/03/08 15:16:26;;;;;;;5.30;2.77;;;10.00;73.30;;;;;;12918031;23;20167;-80
2022/03/08 15:21:34;;;;;;;28.40;9.10;;;8.90;66.00;;;;;;12864029;23;20232;-79
2022/03/08 15:26:37;;;;;;;22.77;9.30;;;8.70;68.20;;;;;;12890074;23;20193;-80
2022/03/08 15:31:40;;;;;;;8.37;2.73;;;8.30;69.20;;;;;;12889825;23;20170;-80
2022/03/08 15:36:42;;;;;;;3.50;2.70;;;8.70;67.10;;;;;;12889128;23;20170;-79
2022/03/08 15:41:45;;;;;;;6.90;2.80;;;8.70;74.50;;;;;;12917803;23;20565;-79
2022/03/08 15:46:48;;;;;;;6.70;2.97;;;8.80;68.70;;;;;;12916918;23;20193;-81
2022/03/08 15:51:50;;;;;;;4.03;2.63;;;8.60;68.30;;;;;;12866174;23;20200;-80
2022/03/08 15:56:56;;;;;;;4.73;2.40;;;9.50;76.30;;;;;;12888748;23;20505;-80
2022/03/08 16:01:59;;;;;;;3.03;2.53;;;9.50;75.70;;;;;;12891055;23;20169;-83
2022/03/08 16:07:02;;;;;;;6.03;3.07;;;10.10;75.10;;;;;;12921991;23;20182;-83
2022/03/08 16:12:05;;;;;;;3.10;2.10;;;10.20;74.50;;;;;;12922515;23;20173;-81
2022/03/08 16:17:08;;;;;;;4.60;2.80;;;10.30;74.40;;;;;;12896408;23;20206;-81
2022/03/08 16:22:13;;;;;;;4.20;2.73;;;10.20;74.50;;;;;;12892758;23;20175;-80
2022/03/08 16:27:15;;;;;;;4.13;3.10;;;9.90;74.00;;;;;;12917325;23;20501;-80
2022/03/08 16:32:18;;;;;;;3.20;2.33;;;9.40;75.40;;;;;;12920997;23;20630;-81
2022/03/08 16:37:21;;;;;;;12.20;4.67;;;9.60;76.60;;;;;;12941275;23;20219;-80
2022/03/08 16:42:23;;;;;;;5.83;2.90;;;8.60;72.90;;;;;;12920510;23;20170;-80
2022/03/08 16:47:27;;;;;;;18.30;6.27;;;7.80;80.80;;;;;;12916440;23;20240;-80
2022/03/08 16:52:29;;;;;;;14.07;4.90;;;7.00;77.20;;;;;;12920359;23;20216;-80
2022/03/08 16:57:32;;;;;;;9.83;3.90;;;9.10;75.10;;;;;;12892244;23;20174;-80
2022/03/08 17:02:34;;;;;;;24.37;9.37;;;9.50;74.70;;;;;;12892212;23;20167;-80
2022/03/08 17:07:38;;;;;;;23.87;7.57;;;8.30;73.60;;;;;;12918417;23;20592;-79
2022/03/08 17:13:00;;;;;;;20.87;7.87;;;8.20;75.80;;;;;;12891019;23;20225;-80
2022/03/08 17:18:04;;;;;;;25.87;5.13;;;8.00;76.90;;;;;;12918668;23;20509;-79
2022/03/08 17:23:07;;;;;;;25.70;8.93;;;7.70;78.00;;;;;;12892126;23;20558;-80
2022/03/08 17:28:10;;;;;;;34.60;9.87;;;6.60;77.00;;;;;;12890539;23;20186;-79
2022/03/08 17:33:13;;;;;;;32.27;10.57;;;5.50;83.20;;;;;;12917809;23;20699;-80
2022/03/08 17:38:15;;;;;;;18.70;6.10;;;5.70;83.80;;;;;;12917768;23;20170;-80
2022/03/08 17:43:18;;;;;;;18.73;8.30;;;6.20;86.30;;;;;;12917432;23;20200;-79
2022/03/08 17:48:23;;;;;;;31.77;10.60;;;6.10;87.00;;;;;;12866561;23;20198;-79
2022/03/08 17:53:25;;;;;;;41.27;12.20;;;5.90;87.70;;;;;;12890564;23;20224;-79
2022/03/08 17:58:28;;;;;;;38.80;15.83;;;5.40;89.50;;;;;;12917069;23;20514;-80
2022/03/08 18:03:31;;;;;;;43.70;15.70;;;5.40;90.00;;;;;;12917919;23;20170;-80
2022/03/08 18:08:34;;;;;;;28.10;11.03;;;5.80;89.20;;;;;;12929542;23;20194;-79
2022/03/08 18:13:37;;;;;;;41.10;15.63;;;5.90;90.00;;;;;;12890315;23;20215;-79
2022/03/08 18:18:40;;;;;;;40.90;11.83;;;5.20;89.60;;;;;;12916548;23;20170;-81
2022/03/08 18:23:42;;;;;;;42.47;12.87;;;6.60;93.80;;;;;;12890282;23;20194;-81
2022/03/08 18:28:45;;;;;;;26.83;11.07;;;7.60;88.10;;;;;;12925805;23;20225;-81
2022/03/08 18:33:50;;;;;;;27.37;10.20;;;7.80;86.70;;;;;;12916653;23;20167;-80
2022/03/08 18:38:52;;;;;;;67.07;24.17;;;7.80;88.10;;;;;;12916846;23;20710;-80
2022/03/08 18:43:55;;;;;;;104.00;38.17;;;7.50;83.30;;;;;;12916036;23;20221;-81
2022/03/08 18:48:57;;;;;;;77.40;29.60;;;5.90;89.10;;;;;;12934105;23;20186;-80
2022/03/08 18:54:00;;;;;;;98.90;39.17;;;6.70;90.70;;;;;;12863365;23;20174;-81
2022/03/08 18:59:03;;;;;;;24.33;12.17;;;6.20;90.20;;;;;;12889612;23;20175;-80
2022/03/08 19:04:06;;;;;;;78.97;33.37;;;7.00;92.90;;;;;;12864128;23;20179;-81
2022/03/08 19:09:08;;;;;;;84.70;37.40;;;7.10;90.30;;;;;;12916122;23;20711;-80
2022/03/08 19:14:11;;;;;;;70.37;29.53;;;6.90;90.00;;;;;;12916216;23;20220;-81
2022/03/08 19:19:13;;;;;;;65.10;24.60;;;6.70;91.50;;;;;;12887340;23;20220;-86
2022/03/08 19:24:16;;;;;;;95.20;39.57;;;7.20;90.50;;;;;;12887970;23;20174;-82
2022/03/08 19:29:18;;;;;;;46.60;19.23;;;6.70;87.50;;;;;;12888997;23;20240;-82
2022/03/08 19:34:21;;;;;;;32.20;14.40;;;6.00;93.50;;;;;;12889860;23;20232;-81
2022/03/08 19:39:24;;;;;;;26.90;11.60;;;7.30;92.50;;;;;;12889348;23;20509;-81
2022/03/08 19:44:48;;;;;;;26.53;11.83;;;7.70;91.60;;;;;;12917089;23;20170;-81
2022/03/08 19:49:50;;;;;;;69.90;28.63;;;8.00;90.20;;;;;;12911186;23;20522;-81
2022/03/08 19:54:53;;;;;;;61.77;24.40;;;8.00;88.80;;;;;;12911761;23;20167;-81
2022/03/08 19:59:56;;;;;;;47.57;20.50;;;7.80;90.00;;;;;;12910973;23;20174;-83
2022/03/08 20:04:58;;;;;;;55.60;21.33;;;7.90;89.00;;;;;;12885279;23;20171;-83
2022/03/08 20:10:01;;;;;;;47.17;20.73;;;7.70;89.80;;;;;;12883638;23;20265;-83
2022/03/08 20:15:10;;;;;;;107.97;47.40;;;7.50;90.10;;;;;;12911472;23;20171;-82
2022/03/08 20:20:14;;;;;;;81.80;36.87;;;7.90;84.60;;;;;;12885697;23;20178;-82
2022/03/08 20:25:16;;;;;;;83.40;38.03;;;8.20;82.60;;;;;;12885910;23;20220;-82
2022/03/08 20:30:19;;;;;;;38.10;19.43;;;8.70;84.50;;;;;;12911833;23;20184;-80
2022/03/08 20:35:22;;;;;;;68.83;30.87;;;8.50;83.90;;;;;;12931091;23;20164;-82
2022/03/08 20:40:24;;;;;;;97.80;45.43;;;8.60;85.10;;;;;;12888384;23;20564;-82
2022/03/08 20:45:28;;;;;;;56.13;26.27;;;8.00;81.30;;;;;;12914524;23;20170;-83
2022/03/08 20:50:32;;;;;;;68.27;30.90;;;8.40;86.00;;;;;;12887053;23;20582;-84
2022/03/08 20:55:34;;;;;;;75.63;36.07;;;8.10;86.60;;;;;;12888248;23;20564;-82
2022/03/08 21:00:37;;;;;;;32.33;16.97;;;8.10;86.30;;;;;;12914778;22;20245;-82
2022/03/08 21:05:39;;;;;;;68.43;32.33;;;8.20;88.60;;;;;;12915016;23;20510;-81
2022/03/08 21:10:42;;;;;;;120.47;54.60;;;8.20;85.00;;;;;;12850914;23;20537;-81
2022/03/08 21:15:44;;;;;;;72.03;36.03;;;7.90;82.90;;;;;;12849615;23;20506;-82
2022/03/08 21:20:47;;;;;;;63.40;30.83;;;7.20;88.30;;;;;;12856026;23;20552;-82
2022/03/08 21:25:49;;;;;;;22.77;13.07;;;7.00;89.90;;;;;;12855979;23;20561;-84
2022/03/08 21:30:52;;;;;;;25.23;12.80;;;8.20;90.70;;;;;;12856152;23;20571;-84
2022/03/08 21:35:54;;;;;;;24.83;13.03;;;9.20;86.50;;;;;;12855512;23;20196;-84
2022/03/08 21:40:57;;;;;;;44.93;22.63;;;10.00;82.30;;;;;;12855643;23;20179;-84
2022/03/08 21:46:03;;;;;;;68.43;31.37;;;9.90;80.80;;;;;;12855898;23;20782;-84
2022/03/08 21:51:07;;;;;;;83.97;42.50;;;8.60;80.00;;;;;;12855162;23;20189;-84
2022/03/08 21:56:09;;;;;;;78.50;38.03;;;6.60;83.80;;;;;;12855510;23;20163;-86
2022/03/08 22:01:12;;;;;;;46.67;19.80;;;5.60;90.30;;;;;;12855173;23;20176;-84
2022/03/08 22:06:14;;;;;;;76.10;35.93;;;6.60;93.70;;;;;;12856414;23;20179;-84
2022/03/08 22:11:17;;;;;;;76.70;39.10;;;6.50;89.90;;;;;;12912493;23;20190;-83
2022/03/08 22:16:19;;;;;;;81.07;38.80;;;4.60;93.20;;;;;;12909192;23;20166;-84
2022/03/08 22:21:22;;;;;;;54.47;25.73;;;6.50;93.80;;;;;;12918839;23;20367;-84
2022/03/08 22:26:25;;;;;;;26.33;13.47;;;6.90;93.30;;;;;;12889886;23;20178;-83
2022/03/08 22:31:32;;;;;;;77.23;34.63;;;7.30;93.10;;;;;;12919247;23;20186;-81
2022/03/08 22:36:36;;;;;;;53.63;25.00;;;7.30;86.10;;;;;;12937031;23;20547;-81
2022/03/08 22:41:38;;;;;;;46.33;21.03;;;7.20;88.90;;;;;;12936708;23;20795;-83
2022/03/08 22:46:41;;;;;;;62.23;28.20;;;6.50;91.70;;;;;;12918235;23;20224;-83
2022/03/08 22:51:49;;;;;;;57.43;28.63;;;6.20;93.40;;;;;;12890959;23;20224;-83
2022/03/08 22:56:54;;;;;;;64.13;32.03;;;5.80;93.40;;;;;;12936291;23;20170;-82
2022/03/08 23:02:16;;;;;;;65.63;31.03;;;6.50;91.60;;;;;;12913861;23;20568;-82
2022/03/08 23:07:19;;;;;;;68.70;34.77;;;5.40;93.90;;;;;;12890736;23;20547;-82
2022/03/08 23:12:21;;;;;;;66.80;29.77;;;4.50;94.50;;;;;;12917746;23;20550;-83
2022/03/08 23:17:24;;;;;;;59.27;28.77;;;4.00;99.40;;;;;;12891865;23;20170;-82
2022/03/08 23:22:27;;;;;;;56.60;28.13;;;5.50;99.60;;;;;;12866728;23;20178;-83
2022/03/08 23:27:29;;;;;;;42.07;18.57;;;5.70;97.50;;;;;;12917262;23;20569;-83
2022/03/08 23:32:32;;;;;;;48.07;23.40;;;6.60;95.90;;;;;;12917727;23;20187;-83
2022/03/08 23:37:34;;;;;;;50.47;24.03;;;6.20;94.60;;;;;;12890796;23;20170;-82
2022/03/08 23:42:38;;;;;;;55.27;25.00;;;6.20;95.60;;;;;;12890962;23;20220;-82
2022/03/08 23:47:40;;;;;;;31.90;16.80;;;6.50;94.70;;;;;;12890925;23;20197;-80
2022/03/08 23:52:43;;;;;;;44.30;22.47;;;6.50;95.50;;;;;;12891185;23;20186;-81
2022/03/08 23:57:45;;;;;;;62.57;29.13;;;7.10;93.30;;;;;;12865871;23;20232;-80
